Time;durP1;ratioP1;P1;durP2;ratioP2;P2;SDS_P1;SDS_P2;PMS_P1;PMS_P2;Temp;Humidity;BMP_temperature;BMP_pressure;BME280_temperature;BME280_humidity;BME280_pressure;Samples;Min_cycle;Max_cycle;Signal;HPM_P1;HPM_P2
2022/12/26 00:01:46;;;;;;;;;2.00;1.00;;;;;15.40;80.91;-19621.59;5020197;28;46165;-93
2022/12/26 00:04:12;;;;;;;;;1.00;1.00;;;;;15.54;80.78;-19625.22;5020415;28;45456;-93
2022/12/26 00:06:37;;;;;;;;;2.00;2.00;;;;;15.17;81.17;-19615.56;5020798;28;45587;-92
2022/12/26 00:09:06;;;;;;;;;1.00;1.00;;;;;14.84;80.67;-19606.84;5019827;28;48115;-93
2022/12/26 00:11:31;;;;;;;;;4.00;1.67;;;;;15.19;80.78;-19616.25;5015022;28;45353;-93
2022/12/26 00:14:09;;;;;;;;;3.00;1.00;;;;;14.94;80.62;-19609.53;5033313;28;45366;-93
2022/12/26 00:16:35;;;;;;;;;1.00;1.00;;;;;15.53;80.23;-19625.09;5016967;28;45777;-93
2022/12/26 00:19:02;;;;;;;;;1.00;1.00;;;;;15.16;79.97;-19615.31;5019728;28;47277;-93
2022/12/26 00:21:28;;;;;;;;;1.00;1.00;;;;;15.50;80.62;-19624.16;5020300;28;45484;-93
2022/12/26 00:23:55;;;;;;;;;0.67;0.67;;;;;15.49;80.78;-19624.03;5020540;28;45418;-93
2022/12/26 00:26:22;;;;;;;;;0.67;0.67;;;;;15.48;80.72;-19623.75;5020499;28;45520;-91
2022/12/26 00:28:48;;;;;;;;;1.00;1.00;;;;;15.51;80.99;-19624.44;5019755;28;48124;-93
2022/12/26 00:31:34;;;;;;;;;3.00;1.00;;;;;15.33;81.20;-19619.88;5019530;28;45916;-94
2022/12/26 00:34:00;;;;;;;;;1.67;1.67;;;;;15.50;81.22;-19624.16;5017910;28;45447;-94
2022/12/26 00:36:28;;;;;;;;;2.00;2.00;;;;;15.31;80.98;-19619.31;5040874;28;45540;-94
2022/12/26 00:38:55;;;;;;;;;3.00;1.67;;;;;15.43;81.71;-19622.41;5020421;28;47532;-94
2022/12/26 00:41:21;;;;;;;;;2.67;2.00;;;;;15.42;82.06;-19622.16;5005062;28;45357;-94
2022/12/26 00:43:48;;;;;;;;;2.00;2.00;;;;;15.28;81.96;-19618.53;5020503;28;45439;-93
2022/12/26 00:46:13;;;;;;;;;2.00;2.00;;;;;14.79;81.74;-19605.63;5004916;28;45302;-95
2022/12/26 00:48:39;;;;;;;;;4.00;3.00;;;;;15.25;81.98;-19617.72;5001504;28;47454;-96
2022/12/26 00:51:04;;;;;;;;;3.33;2.00;;;;;14.44;82.08;-19596.50;5039673;28;45901;-96
2022/12/26 00:53:30;;;;;;;;;3.00;2.33;;;;;14.63;82.21;-19601.47;5025048;28;45443;-95
2022/12/26 00:58:30;;;;;;;;;4.00;2.33;;;;;13.63;82.97;-19575.16;5309034;23;45956;-95
2022/12/26 01:01:15;;;;;;;;;4.00;3.00;;;;;14.23;83.14;-19590.88;5013107;28;45413;-96
2022/12/26 01:03:41;;;;;;;;;3.67;2.00;;;;;15.36;83.35;-19620.66;4998145;28;45478;-96
2022/12/26 01:06:07;;;;;;;;;3.33;2.33;;;;;14.14;83.99;-19588.56;4981591;28;45464;-96
2022/12/26 01:08:38;;;;;;;;;5.33;2.67;;;;;14.83;84.40;-19606.59;4980153;28;47429;-96
2022/12/26 01:14:18;;;;;;;;;3.67;1.67;;;;;14.38;85.53;-19594.75;5004442;23;45642;-96
2022/12/26 01:16:46;;;;;;;;;1.67;1.67;;;;;14.32;85.78;-19593.28;5000325;28;45664;-95
2022/12/26 01:19:15;;;;;;;;;5.67;3.00;;;;;14.28;85.63;-19189.94;4999681;28;45662;-96
2022/12/26 01:24:08;;;;;;;;;4.00;2.67;;;;;13.63;86.47;-17219.13;4977188;28;45306;-96
2022/12/26 01:26:33;;;;;;;;;2.00;2.00;;;;;14.15;86.62;-16346.41;4958356;28;44862;-96
2022/12/26 01:28:59;;;;;;;;;4.33;3.00;;;;;14.75;87.51;-14538.03;4971085;28;46992;-96
2022/12/26 01:31:24;;;;;;;;;3.00;2.67;;;;;14.99;86.45;-18502.53;5010935;23;45182;-95
2022/12/26 01:33:56;;;;;;;;;2.00;2.00;;;;;14.27;86.69;-16143.19;4995591;28;45323;-95
2022/12/26 01:36:23;;;;;;;;;2.00;2.00;;;;;13.59;87.03;-15128.16;4980443;28;45613;-95
2022/12/26 01:38:55;;;;;;;;;3.00;3.00;;;;;13.49;86.61;-17603.16;4980112;28;47238;-96
2022/12/26 01:41:26;;;;;;;;;4.33;3.00;;;;;14.57;86.69;-16144.38;4981971;28;45369;-95
2022/12/26 01:44:24;;;;;;;;;4.00;2.33;;;;;14.55;87.22;-15781.91;4999193;28;45467;-95
2022/12/26 01:49:37;;;;;;;;;1.33;1.33;;;;;13.71;86.04;-17522.47;5950681;22;46116;-96
2022/12/26 01:52:08;;;;;;;;;2.33;2.00;;;;;13.99;86.20;-17484.75;5031228;23;45414;-95
2022/12/26 01:54:49;;;;;;;;;3.33;1.00;;;;;13.34;86.39;-18165.97;4956239;28;45421;-95
2022/12/26 02:06:36;;;;;;;;;2.67;2.00;;;;;13.57;85.82;-18953.38;4966950;28;45429;-93
2022/12/26 02:09:05;;;;;;;;;4.00;2.00;;;;;15.05;86.31;-19123.53;4980862;28;45473;-95
2022/12/26 02:14:24;;;;;;;;;4.00;3.00;;;;;14.41;87.06;-15219.34;5379489;23;71472;-93
2022/12/26 02:16:58;;;;;;;;;2.67;1.00;;;;;14.40;87.50;-12716.09;5019073;28;45352;-94
2022/12/26 02:19:42;;;;;;;;;1.33;1.33;;;;;14.98;88.26;-9020.16;5019271;28;45587;-94
2022/12/26 02:22:29;;;;;;;;;1.33;1.33;;;;;14.99;87.88;-10199.91;5028405;22;46547;-95
2022/12/26 02:25:25;;;;;;;;;1.67;1.00;;;;;14.93;87.87;-11083.75;4999922;28;45447;-95
2022/12/26 02:28:02;;;;;;;;;2.00;1.00;;;;;14.92;87.95;-9841.66;4996837;28;45340;-89
2022/12/26 02:30:52;;;;;;;;;0.67;0.67;;;;;14.91;87.40;-14105.63;4994511;28;45280;-89
2022/12/26 02:33:32;;;;;;;;;2.00;2.00;;;;;14.88;87.48;-14133.78;4980363;28;48490;-90
2022/12/26 02:36:16;;;;;;;;;1.67;0.67;;;;;14.87;87.65;-13150.94;4980731;28;46090;-91
2022/12/26 02:39:18;;;;;;;;;2.00;1.00;;;;;14.19;87.02;-15186.38;4982238;28;45471;-90
2022/12/26 02:42:21;;;;;;;;;1.00;1.00;;;;;13.65;87.00;-15857.44;5018483;28;45410;-94
2022/12/26 02:48:29;;;;;;;;;1.00;0.00;;;;;14.42;87.34;-13185.44;4843276;29;45439;-90
2022/12/26 03:13:09;;;;;;;;;1.00;1.00;;;;;14.56;87.02;-15157.19;4847701;29;45638;-90
2022/12/26 03:14:54;;;;;;;;;0.67;0.67;;;;;14.81;85.90;-19606.03;4862517;28;45787;-87
2022/12/26 03:17:34;;;;;;;;;0.00;0.00;;;;;14.68;86.17;-19395.31;4859590;29;45599;-88
2022/12/26 03:20:24;;;;;;;;;1.00;1.00;;;;;14.70;86.08;-19104.41;4875911;29;48406;-88
2022/12/26 03:23:00;;;;;;;;;0.67;0.67;;;;;14.15;85.93;-19516.84;4864757;29;45370;-91
2022/12/26 03:28:19;;;;;;;;;1.00;0.00;;;;;14.19;86.33;-19546.38;4979730;28;45377;-92
2022/12/26 03:30:48;;;;;;;;;1.00;0.00;;;;;14.47;85.96;-19597.31;4960420;28;48884;-90
2022/12/26 03:36:21;;;;;;;;;0.67;0.67;;;;;14.29;85.88;-19592.47;4998339;28;45447;-91
2022/12/26 03:39:06;;;;;;;;;0.00;0.00;;;;;14.75;85.40;-19604.56;4980720;28;45570;-91
2022/12/26 04:20:02;;;;;;;;;0.00;0.00;;;;;14.57;84.62;-19600.00;4998262;28;45653;-93
2022/12/26 04:45:25;;;;;;;;;0.00;0.00;;;;;14.52;84.02;-19598.66;4984417;28;45795;-91
2022/12/26 04:50:35;;;;;;;;;0.00;0.00;;;;;14.56;83.91;-19599.59;4986274;28;45503;-92
2022/12/26 04:53:00;;;;;;;;;0.00;0.00;;;;;14.32;83.75;-19593.41;4982148;28;45572;-92
2022/12/26 04:55:31;;;;;;;;;0.00;0.00;;;;;14.56;84.19;-19599.72;4963202;28;45303;-92
2022/12/26 04:57:57;;;;;;;;;2.00;0.00;;;;;14.54;84.00;-19599.19;4968021;28;45377;-92
2022/12/26 05:00:26;;;;;;;;;1.00;0.00;;;;;14.51;83.37;-19598.25;4950571;28;48418;-92
2022/12/26 05:11:25;;;;;;;;;0.00;0.00;;;;;12.61;83.22;-19548.50;4973297;28;45519;-93
2022/12/26 05:13:54;;;;;;;;;0.00;0.00;;;;;13.99;83.47;-19584.69;4980194;28;45369;-93
2022/12/26 05:30:13;;;;;;;;;0.67;0.67;;;;;14.47;82.38;-19597.16;5001518;28;45288;-94
2022/12/26 05:35:22;;;;;;;;;0.00;0.00;;;;;14.21;82.60;-19590.47;5002280;28;45366;-94
2022/12/26 05:37:48;;;;;;;;;0.00;0.00;;;;;14.30;82.26;-19592.88;5000406;28;45404;-95
2022/12/26 05:40:13;;;;;;;;;1.00;1.00;;;;;13.95;82.33;-19583.59;4986003;28;45362;-96
2022/12/26 05:42:39;;;;;;;;;2.00;1.00;;;;;14.41;82.81;-19595.69;4994182;28;47027;-96
2022/12/26 05:45:05;;;;;;;;;0.00;0.00;;;;;14.28;82.75;-19592.19;5004086;28;45321;-95
2022/12/26 05:47:30;;;;;;;;;0.00;0.00;;;;;13.95;82.42;-19583.59;4984864;28;45313;-95
2022/12/26 05:49:55;;;;;;;;;0.00;0.00;;;;;14.34;82.76;-19593.94;5000459;28;45602;-95
2022/12/26 05:52:21;;;;;;;;;0.00;0.00;;;;;14.39;82.48;-19595.16;4998660;28;48156;-95
2022/12/26 05:54:46;;;;;;;;;0.33;0.33;;;;;13.98;82.51;-19584.41;4994438;28;46059;-92
2022/12/26 05:57:11;;;;;;;;;0.33;0.33;;;;;14.36;82.63;-19594.50;4983924;28;45462;-96
2022/12/26 05:59:37;;;;;;;;;0.00;0.00;;;;;14.40;82.08;-19595.28;4969762;28;45299;-96
2022/12/26 06:02:02;;;;;;;;;0.00;0.00;;;;;13.96;82.16;-19583.75;4988569;28;47314;-95
2022/12/26 06:04:28;;;;;;;;;0.00;0.00;;;;;14.13;81.98;-19588.44;4982675;28;45442;-96
2022/12/26 06:06:55;;;;;;;;;0.00;0.00;;;;;14.27;81.81;-19591.94;4982404;28;45361;-96
2022/12/26 06:09:21;;;;;;;;;2.00;0.00;;;;;14.30;81.82;-19592.88;5000027;28;45246;-94
2022/12/26 06:11:48;;;;;;;;;0.00;0.00;;;;;13.92;81.63;-19582.81;4992980;28;48130;-93
2022/12/26 06:14:13;;;;;;;;;0.00;0.00;;;;;14.26;81.14;-19591.66;4997644;28;46062;-93
2022/12/26 06:16:38;;;;;;;;;0.00;0.00;;;;;13.41;81.21;-19569.50;4998909;28;45581;-92
2022/12/26 06:19:04;;;;;;;;;0.00;0.00;;;;;14.20;81.36;-19590.19;4983968;28;45498;-95
2022/12/26 06:21:29;;;;;;;;;1.67;0.33;;;;;12.87;81.50;-19555.22;5007685;28;47470;-96
2022/12/26 06:23:55;;;;;;;;;0.00;0.00;;;;;13.99;80.96;-19584.69;4982651;28;45894;-94
2022/12/26 06:26:20;;;;;;;;;0.67;0.00;;;;;12.66;80.78;-19549.84;4975250;28;45425;-95
2022/12/26 06:28:46;;;;;;;;;0.00;0.00;;;;;14.20;81.04;-19590.19;4978845;28;45523;-95
2022/12/26 06:31:20;;;;;;;;;0.00;0.00;;;;;12.42;80.56;-19543.38;4998527;28;47787;-96
2022/12/26 06:33:46;;;;;;;;;0.67;0.00;;;;;13.10;80.91;-19561.28;4973799;28;46836;-94
2022/12/26 06:36:15;;;;;;;;;1.33;0.67;;;;;14.10;81.20;-19587.63;4983912;28;45408;-96
2022/12/26 06:38:41;;;;;;;;;0.00;0.00;;;;;13.88;80.73;-19581.72;4987418;28;45490;-96
2022/12/26 06:41:10;;;;;;;;;1.33;0.00;;;;;13.27;80.28;-19565.72;4990398;28;47284;-95
2022/12/26 06:43:36;;;;;;;;;0.00;0.00;;;;;13.51;80.52;-19572.06;4972723;28;45601;-95
2022/12/26 06:46:03;;;;;;;;;0.00;0.00;;;;;12.67;80.01;-19550.13;4979571;28;45589;-95
2022/12/26 06:48:29;;;;;;;;;0.00;0.00;;;;;13.99;80.56;-19584.56;4986232;28;45511;-96
2022/12/26 06:50:55;;;;;;;;;0.00;0.00;;;;;13.90;80.34;-19582.41;4984796;28;47812;-96
2022/12/26 06:53:22;;;;;;;;;0.67;0.67;;;;;13.12;80.55;-19561.69;4998790;28;45309;-93
2022/12/26 06:55:48;;;;;;;;;0.00;0.00;;;;;13.51;80.82;-19572.06;4987860;28;45422;-93
2022/12/26 06:58:14;;;;;;;;;2.33;0.33;;;;;13.87;80.57;-19581.47;4992577;28;45595;-92
2022/12/26 07:00:40;;;;;;;;;0.00;0.00;;;;;13.61;80.49;-19574.75;4994111;28;47070;-94
2022/12/26 07:03:05;;;;;;;;;1.33;0.00;;;;;13.90;80.66;-19582.25;5001855;28;45365;-94
2022/12/26 07:05:30;;;;;;;;;2.33;0.33;;;;;13.80;80.80;-19579.56;4992536;28;45368;-94
2022/12/26 07:07:56;;;;;;;;;0.00;0.00;;;;;14.01;80.89;-19585.09;4990815;28;45418;-94
2022/12/26 07:10:21;;;;;;;;;1.00;0.00;;;;;13.78;80.76;-19579.03;4993670;28;47615;-94
2022/12/26 07:12:47;;;;;;;;;0.00;0.00;;;;;13.10;80.28;-19561.28;4983247;28;46049;-95
2022/12/26 07:15:13;;;;;;;;;2.33;0.67;;;;;14.01;80.17;-19585.22;4992725;28;46166;-95
2022/12/26 07:17:39;;;;;;;;;0.00;0.00;;;;;14.00;79.67;-19584.94;4991705;28;45379;-95
2022/12/26 07:20:05;;;;;;;;;1.00;1.00;;;;;14.10;80.14;-19587.50;4969680;28;48118;-96
2022/12/26 07:22:31;;;;;;;;;0.33;0.33;;;;;13.92;80.27;-19582.81;4984844;28;45290;-96
2022/12/26 07:24:56;;;;;;;;;0.67;0.67;;;;;13.92;79.73;-19582.94;4967122;28;46366;-95
2022/12/26 07:27:22;;;;;;;;;2.00;0.00;;;;;13.61;80.13;-19574.59;4960583;28;45986;-87
2022/12/26 07:29:47;;;;;;;;;0.00;0.00;;;;;14.05;80.06;-19586.16;4980696;28;45713;-86
2022/12/26 07:32:12;;;;;;;;;0.00;0.00;;;;;13.07;79.57;-19560.63;4973409;28;45437;-87
2022/12/26 07:34:38;;;;;;;;;1.00;0.33;;;;;14.02;80.22;-19585.50;4949313;28;45469;-88
2022/12/26 07:37:03;;;;;;;;;0.00;0.00;;;;;13.26;79.84;-19565.59;4960797;28;45563;-88
2022/12/26 07:39:29;;;;;;;;;0.33;0.33;;;;;13.98;79.69;-19584.28;4971901;28;46067;-89
2022/12/26 07:41:57;;;;;;;;;0.00;0.00;;;;;13.06;79.93;-19560.22;4958446;28;46173;-87
2022/12/26 07:44:27;;;;;;;;;0.00;0.00;;;;;12.73;79.69;-19551.59;4983469;28;45483;-88
2022/12/26 07:46:53;;;;;;;;;0.67;0.67;;;;;13.36;80.43;-19568.00;4976390;28;45491;-88
2022/12/26 07:49:19;;;;;;;;;1.33;0.00;;;;;13.48;80.49;-19571.25;4976039;28;46395;-89
2022/12/26 07:51:44;;;;;;;;;0.67;0.67;;;;;14.01;80.46;-19585.09;4991895;28;45396;-90
2022/12/26 07:54:10;;;;;;;;;0.00;0.00;;;;;13.09;80.06;-19561.03;4960844;28;45440;-91
2022/12/26 07:56:35;;;;;;;;;0.00;0.00;;;;;13.76;80.22;-19578.63;4974001;28;45668;-89
2022/12/26 07:59:01;;;;;;;;;0.00;0.00;;;;;13.25;79.95;-19565.31;4970960;28;46262;-91
2022/12/26 08:01:27;;;;;;;;;0.00;0.00;;;;;13.70;79.93;-19577.16;4962313;28;45334;-90
2022/12/26 08:03:52;;;;;;;;;0.00;0.00;;;;;13.13;79.95;-19561.97;4977533;28;45290;-89
2022/12/26 08:06:18;;;;;;;;;0.67;0.67;;;;;13.77;80.32;-19578.91;4994810;28;45374;-89
2022/12/26 08:08:45;;;;;;;;;1.67;0.67;;;;;13.63;79.94;-19575.28;4993187;28;46555;-90
2022/12/26 08:11:14;;;;;;;;;0.67;0.67;;;;;13.89;79.95;-19582.13;4964670;28;45532;-89
2022/12/26 08:13:40;;;;;;;;;1.67;0.00;;;;;13.84;79.82;-19580.78;4991180;28;45578;-92
2022/12/26 08:16:07;;;;;;;;;0.67;0.00;;;;;14.10;79.93;-19587.50;4962610;28;45424;-92
2022/12/26 08:18:33;;;;;;;;;0.33;0.33;;;;;14.26;79.84;-19591.66;4972673;28;47306;-92
2022/12/26 08:20:59;;;;;;;;;1.33;0.33;;;;;14.26;79.83;-19591.81;4957939;28;45525;-91
2022/12/26 08:23:25;;;;;;;;;1.00;0.67;;;;;14.01;80.00;-19585.09;4958873;28;45680;-91
2022/12/26 08:25:50;;;;;;;;;0.00;0.00;;;;;13.55;80.14;-19573.00;4968355;28;45383;-92
2022/12/26 08:28:16;;;;;;;;;1.33;0.00;;;;;13.24;79.38;-19564.91;4948864;28;47299;-92
2022/12/26 08:30:42;;;;;;;;;0.00;0.00;;;;;14.32;79.52;-19593.41;4988645;28;45692;-92
2022/12/26 08:33:09;;;;;;;;;1.33;0.67;;;;;14.19;79.77;-19589.94;4944279;28;45497;-91
2022/12/26 08:35:36;;;;;;;;;0.00;0.00;;;;;14.25;79.89;-19591.41;4946756;28;45613;-90
2022/12/26 08:38:02;;;;;;;;;1.00;1.00;;;;;13.99;79.94;-19584.56;4950068;28;47150;-94
2022/12/26 08:40:27;;;;;;;;;1.33;0.67;;;;;14.39;79.85;-19595.16;4953678;28;45516;-94
2022/12/26 08:42:53;;;;;;;;;0.67;0.67;;;;;13.58;79.37;-19573.94;4968012;28;45446;-93
2022/12/26 08:45:18;;;;;;;;;0.00;0.00;;;;;13.86;79.56;-19581.19;4966700;28;45452;-92
2022/12/26 08:47:44;;;;;;;;;1.00;1.00;;;;;14.33;79.33;-19593.56;4964659;28;48514;-92
2022/12/26 08:50:09;;;;;;;;;0.67;0.67;;;;;13.93;79.45;-19583.22;4967933;28;45322;-92
2022/12/26 08:52:35;;;;;;;;;1.67;1.00;;;;;14.07;79.59;-19586.69;4966263;28;45409;-92
2022/12/26 08:55:01;;;;;;;;;0.00;0.00;;;;;13.61;79.42;-19574.75;4964623;28;45382;-90
2022/12/26 08:57:27;;;;;;;;;0.00;0.00;;;;;13.97;79.29;-19584.16;4971188;28;46082;-90
2022/12/26 08:59:52;;;;;;;;;0.00;0.00;;;;;13.54;79.54;-19572.84;4995459;28;45397;-90
2022/12/26 09:02:18;;;;;;;;;0.00;0.00;;;;;13.85;79.05;-19580.91;4983841;28;45671;-92
2022/12/26 09:04:43;;;;;;;;;0.00;0.00;;;;;13.36;79.41;-19568.00;4985728;28;45622;-89
2022/12/26 09:07:08;;;;;;;;;0.67;0.67;;;;;13.73;79.35;-19577.84;4981077;28;45444;-90
2022/12/26 09:09:34;;;;;;;;;2.33;1.00;;;;;13.64;79.04;-19575.53;4988794;28;45579;-91
2022/12/26 09:12:00;;;;;;;;;2.00;1.00;;;;;14.20;79.19;-19590.19;4971294;28;45691;-91
2022/12/26 09:14:25;;;;;;;;;1.00;0.67;;;;;13.87;79.34;-19581.59;4970547;28;45547;-89
2022/12/26 09:16:51;;;;;;;;;2.67;1.00;;;;;13.69;79.52;-19576.88;4986297;28;46398;-90
2022/12/26 09:19:18;;;;;;;;;4.00;0.67;;;;;14.16;79.22;-19589.13;4964631;28;45642;-89
2022/12/26 09:21:45;;;;;;;;;0.00;0.00;;;;;13.68;79.02;-19576.63;4979943;28;45346;-96
2022/12/26 09:24:13;;;;;;;;;0.00;0.00;;;;;14.43;79.01;-19596.09;4972386;28;45310;-93
2022/12/26 09:26:39;;;;;;;;;0.00;0.00;;;;;13.33;79.12;-19567.22;4963561;28;46857;-93
2022/12/26 09:29:04;;;;;;;;;1.00;1.00;;;;;12.67;79.26;-19550.00;4981246;28;45471;-94
2022/12/26 09:31:33;;;;;;;;;1.00;1.00;;;;;14.18;78.87;-19589.53;4963272;28;45409;-93
2022/12/26 09:34:03;;;;;;;;;0.00;0.00;;;;;14.33;78.91;-19593.56;4962337;28;45675;-91
2022/12/26 09:36:32;;;;;;;;;2.00;0.00;;;;;13.85;78.97;-19580.91;4963369;28;48078;-91
2022/12/26 09:38:58;;;;;;;;;0.33;0.33;;;;;13.89;78.49;-19582.13;4968375;28;45520;-92
2022/12/26 09:41:52;;;;;;;;;0.67;0.67;;;;;14.61;78.67;-19600.94;4972532;28;45472;-90
2022/12/26 09:44:50;;;;;;;;;0.00;0.00;;;;;14.42;78.45;-19595.97;4967065;28;45473;-90
2022/12/26 09:47:31;;;;;;;;;2.00;1.00;;;;;14.66;77.95;-19602.28;4985755;28;46082;-91
2022/12/26 09:50:07;;;;;;;;;1.00;1.00;;;;;14.65;78.34;-19602.00;4963236;28;45587;-89
2022/12/26 09:52:51;;;;;;;;;0.67;0.67;;;;;14.52;78.58;-19598.66;4968367;28;45464;-90
2022/12/26 09:55:50;;;;;;;;;0.00;0.00;;;;;14.60;78.33;-19600.53;4981691;28;45345;-90
2022/12/26 09:58:15;;;;;;;;;0.00;0.00;;;;;14.73;78.08;-19604.16;4869040;29;45702;-92
2022/12/26 10:00:49;;;;;;;;;3.00;1.00;;;;;14.43;78.30;-19596.22;4859875;28;46013;-90
2022/12/26 10:03:15;;;;;;;;;0.00;0.00;;;;;14.71;78.20;-19603.63;4865557;29;45431;-90
2022/12/26 10:05:56;;;;;;;;;0.00;0.00;;;;;14.21;77.89;-19590.47;4871994;29;45418;-90
2022/12/26 10:08:38;;;;;;;;;0.00;0.00;;;;;14.17;78.13;-19589.25;4867546;29;45782;-92
2022/12/26 10:11:09;;;;;;;;;0.00;0.00;;;;;14.16;78.64;-19589.13;4874607;29;46273;-93
2022/12/26 10:14:23;;;;;;;;;0.33;0.33;;;;;14.69;78.39;-19603.09;4868855;29;45283;-95
2022/12/26 10:16:58;;;;;;;;;1.00;0.00;;;;;14.71;78.09;-19603.63;4787147;29;45309;-96
2022/12/26 10:19:47;;;;;;;;;0.00;0.00;;;;;14.28;77.84;-19592.34;4777120;29;48484;-96
2022/12/26 10:22:31;;;;;;;;;0.00;0.00;;;;;15.03;77.32;-19611.94;4789270;29;45554;-95
2022/12/26 10:25:01;;;;;;;;;0.00;0.00;;;;;15.04;77.75;-19612.22;4780551;29;45375;-93
2022/12/26 10:30:41;;;;;;;;;0.00;0.00;;;;;13.64;77.18;-19575.41;5160602;22;47151;-89
2022/12/26 10:33:37;;;;;;;;;0.00;0.00;;;;;14.05;76.43;-19586.16;5011417;23;45957;-88
2022/12/26 10:36:03;;;;;;;;;0.00;0.00;;;;;15.03;76.54;-19611.81;4959008;23;45659;-95
2022/12/26 10:38:36;;;;;;;;;3.00;0.00;;;;;15.19;76.90;-19616.25;4997962;28;44766;-90
2022/12/26 10:41:23;;;;;;;;;0.67;0.00;;;;;14.83;76.56;-19606.59;4979863;28;47103;-92
2022/12/26 10:43:48;;;;;;;;;1.67;1.00;;;;;14.89;75.91;-19608.19;4968907;28;46194;-96
2022/12/26 10:46:16;;;;;;;;;0.33;0.33;;;;;15.18;76.21;-19615.97;4994559;28;45392;-95
2022/12/26 10:48:42;;;;;;;;;3.00;0.00;;;;;14.85;76.17;-19607.13;4981780;28;45654;-94
2022/12/26 10:51:08;;;;;;;;;0.33;0.33;;;;;14.51;76.37;-19598.38;4995261;28;46956;-94
2022/12/26 10:53:37;;;;;;;;;1.67;0.00;;;;;15.00;75.74;-19611.13;4987182;28;45545;-93
2022/12/26 10:56:03;;;;;;;;;0.00;0.00;;;;;14.88;75.96;-19607.91;4995227;28;45432;-94
2022/12/26 10:58:34;;;;;;;;;1.00;0.00;;;;;15.26;75.51;-19617.97;4982559;28;45766;-93
2022/12/26 11:01:35;;;;;;;;;0.00;0.00;;;;;15.28;75.91;-19618.38;4979866;28;48205;-94
2022/12/26 11:04:25;;;;;;;;;0.00;0.00;;;;;15.13;75.44;-19614.63;4975034;28;46960;-95
2022/12/26 11:06:53;;;;;;;;;1.00;0.00;;;;;14.94;75.78;-19609.66;4959655;28;45307;-94
2022/12/26 11:09:38;;;;;;;;;0.67;0.00;;;;;15.12;75.35;-19614.22;4980620;28;45626;-94
2022/12/26 11:12:23;;;;;;;;;2.33;0.00;;;;;15.09;74.98;-19613.44;4980954;28;48369;-94
2022/12/26 11:14:55;;;;;;;;;1.00;0.00;;;;;14.97;74.64;-19610.34;4977343;28;45903;-93
2022/12/26 11:17:30;;;;;;;;;2.00;0.00;;;;;15.28;74.48;-19618.53;4982169;28;45598;-93
2022/12/26 11:20:29;;;;;;;;;0.00;0.00;;;;;15.36;74.29;-19620.53;4997186;28;45666;-93
2022/12/26 11:23:17;;;;;;;;;1.33;0.00;;;;;15.09;74.01;-19613.56;4903147;28;47624;-94
2022/12/26 11:26:00;;;;;;;;;1.33;1.00;;;;;14.85;73.53;-19607.13;4903164;28;45358;-92
2022/12/26 11:39:17;;;;;;;;;1.00;0.00;;;;;15.26;72.49;-19617.84;5002787;23;67849;-89
2022/12/26 11:41:59;;;;;;;;;0.00;0.00;;;;;13.88;72.28;-19581.72;4985688;28;45490;-93
2022/12/26 11:44:54;;;;;;;;;0.00;0.00;;;;;14.96;72.48;-19610.19;4995277;28;47680;-96
2022/12/26 11:47:27;;;;;;;;;0.00;0.00;;;;;14.95;72.37;-19609.94;4982702;28;45460;-96
2022/12/26 11:50:04;;;;;;;;;0.00;0.00;;;;;15.44;72.78;-19622.69;4981973;28;45378;-96
2022/12/26 11:52:54;;;;;;;;;0.00;0.00;;;;;15.28;73.59;-19618.53;4998506;28;45432;-96
2022/12/26 12:22:39;;;;;;;;;1.33;1.33;;;;;13.96;81.38;-19583.75;4798368;29;45559;-96
2022/12/26 12:25:39;;;;;;;;;0.00;0.00;;;;;13.88;81.53;-19581.72;4807353;29;45346;-96
2022/12/26 12:32:05;;;;;;;;;0.67;0.67;;;;;13.19;80.98;-19563.72;4786300;29;45683;-90
2022/12/26 12:48:45;;;;;;;;;1.33;0.67;;;;;13.52;80.44;-19572.44;4885430;24;45609;-89
2022/12/26 12:54:25;;;;;;;;;2.67;1.33;;;;;13.58;80.26;-19573.94;4945107;23;45482;-88
2022/12/26 12:59:47;;;;;;;;;0.67;0.33;;;;;13.65;79.62;-19575.81;4847462;23;46600;-88
2022/12/26 13:02:25;;;;;;;;;1.33;1.33;;;;;13.64;78.89;-19575.41;4845679;29;45530;-88
2022/12/26 13:05:03;;;;;;;;;2.00;1.67;;;;;12.77;78.98;-19552.69;4841840;29;45471;-91
2022/12/26 13:07:41;;;;;;;;;0.67;0.67;;;;;13.46;79.37;-19570.69;4824448;29;46883;-91
2022/12/26 13:10:20;;;;;;;;;0.67;0.67;;;;;13.70;78.40;-19577.03;4836778;29;45607;-87
2022/12/26 13:12:47;;;;;;;;;0.00;0.00;;;;;13.68;78.17;-19576.50;4820825;29;45413;-89
2022/12/26 13:15:25;;;;;;;;;0.00;0.00;;;;;13.03;77.56;-19559.53;4835277;29;45464;-88
2022/12/26 13:17:58;;;;;;;;;1.00;1.00;;;;;13.55;77.06;-19573.13;4839631;29;45806;-88
2022/12/26 13:20:56;;;;;;;;;2.00;1.00;;;;;13.83;78.03;-19580.50;4821026;29;45604;-90
2022/12/26 13:26:17;;;;;;;;;0.00;0.00;;;;;13.89;76.70;-19582.00;4836473;29;45569;-90
2022/12/26 13:28:58;;;;;;;;;2.00;2.00;;;;;13.63;76.79;-19575.16;4834373;29;46630;-89
2022/12/26 13:31:23;;;;;;;;;0.00;0.00;;;;;13.27;75.88;-19565.88;4839291;29;45557;-88
2022/12/26 13:33:49;;;;;;;;;3.33;0.67;;;;;13.88;76.26;-19581.72;4836642;29;45514;-89
2022/12/26 13:36:45;;;;;;;;;1.67;0.33;;;;;13.72;75.59;-19577.56;4839561;29;45496;-89
2022/12/26 13:39:11;;;;;;;;;0.67;0.67;;;;;13.90;76.45;-19582.25;4831828;29;45427;-89
2022/12/26 13:44:21;;;;;;;;;1.00;1.00;;;;;13.93;74.87;-19583.06;4840748;29;45502;-89
2022/12/26 13:46:47;;;;;;;;;0.67;0.67;;;;;13.95;74.88;-19583.59;4828326;29;45547;-89
2022/12/26 13:49:35;;;;;;;;;0.00;0.00;;;;;13.94;74.29;-19583.47;4841240;29;45673;-91
2022/12/26 13:52:09;;;;;;;;;1.33;1.00;;;;;13.99;74.29;-19584.69;4837996;29;46268;-92
2022/12/26 13:54:56;;;;;;;;;1.33;1.33;;;;;13.62;74.34;-19575.00;4822035;29;45586;-91
2022/12/26 13:57:33;;;;;;;;;0.67;0.67;;;;;14.04;74.73;-19585.88;4809665;29;45529;-91
2022/12/26 14:00:05;;;;;;;;;1.67;0.67;;;;;14.05;74.08;-19586.16;4847937;29;48335;-91
2022/12/26 14:02:47;;;;;;;;;0.67;0.67;;;;;13.79;74.08;-19579.31;4843626;29;45929;-91
2022/12/26 14:05:34;;;;;;;;;0.67;0.67;;;;;14.07;74.24;-19586.84;4824717;29;45707;-91
2022/12/26 14:08:04;;;;;;;;;2.67;0.67;;;;;13.68;73.48;-19576.63;4838214;29;46236;-90
2022/12/26 14:10:48;;;;;;;;;0.67;0.67;;;;;14.01;73.02;-19585.22;4841051;29;45688;-90
2022/12/26 14:13:32;;;;;;;;;0.67;0.67;;;;;13.97;72.81;-19584.16;4838493;29;45754;-91
2022/12/26 14:16:24;;;;;;;;;0.00;0.00;;;;;13.94;72.80;-19583.47;4836065;29;45572;-91
2022/12/26 14:19:01;;;;;;;;;0.33;0.33;;;;;13.76;73.58;-19578.50;4785445;29;45456;-92
2022/12/26 14:21:52;;;;;;;;;1.00;0.67;;;;;13.79;73.61;-19579.31;4808681;29;46674;-91
2022/12/26 14:24:41;;;;;;;;;3.33;1.67;;;;;13.44;72.92;-19570.16;4780941;29;45402;-90
2022/12/26 14:27:10;;;;;;;;;4.00;1.00;;;;;13.85;72.83;-19581.06;4786764;29;45500;-91
2022/12/26 14:29:49;;;;;;;;;3.67;2.67;;;;;13.84;72.36;-19580.66;4784702;29;45605;-89
2022/12/26 14:32:33;;;;;;;;;3.67;2.33;;;;;13.82;72.45;-19580.13;4803052;29;48368;-90
2022/12/26 14:35:47;;;;;;;;;2.67;2.67;;;;;13.81;72.63;-19579.97;4785985;29;45719;-92
2022/12/26 14:38:30;;;;;;;;;6.67;6.67;;;;;13.82;72.14;-19580.13;4781937;29;45646;-92
2022/12/26 14:41:04;;;;;;;;;2.67;2.67;;;;;13.82;72.36;-19580.25;4806929;29;45755;-90
2022/12/26 14:43:34;;;;;;;;;5.67;5.67;;;;;13.80;72.90;-19579.56;4791195;29;47663;-92
2022/12/26 14:46:01;;;;;;;;;4.00;4.00;;;;;13.78;71.92;-19579.03;4787826;29;45879;-93
2022/12/26 14:48:26;;;;;;;;;6.33;5.00;;;;;13.77;71.50;-19578.91;4775412;29;45665;-92
2022/12/26 14:50:54;;;;;;;;;2.33;1.67;;;;;13.60;71.18;-19574.34;4793730;29;45614;-94
2022/12/26 14:53:28;;;;;;;;;1.00;1.00;;;;;13.74;70.95;-19578.09;4790962;29;47209;-90
2022/12/26 14:55:58;;;;;;;;;0.67;0.33;;;;;13.71;70.96;-19577.44;4821737;29;45427;-93
2022/12/26 14:58:24;;;;;;;;;0.67;0.67;;;;;13.67;70.31;-19576.34;4824548;29;45547;-94
2022/12/26 15:00:50;;;;;;;;;0.67;0.67;;;;;12.58;69.39;-19547.56;4840854;29;46808;-95
2022/12/26 15:03:37;;;;;;;;;1.67;1.67;;;;;13.57;68.88;-19573.66;4814791;29;48758;-93
2022/12/26 15:06:29;;;;;;;;;0.67;0.67;;;;;13.40;68.96;-19569.22;4822552;29;45497;-93
2022/12/26 15:09:23;;;;;;;;;3.00;0.67;;;;;13.48;68.61;-19571.25;4774602;29;45372;-93
2022/12/26 15:12:24;;;;;;;;;0.67;0.67;;;;;13.02;69.02;-19559.13;4771653;29;45689;-92
2022/12/26 15:15:26;;;;;;;;;2.33;0.67;;;;;13.36;68.69;-19568.16;4784144;29;47469;-92
2022/12/26 15:18:26;;;;;;;;;1.67;0.67;;;;;13.29;68.58;-19566.41;4788350;29;45550;-94
2022/12/26 15:21:19;;;;;;;;;1.67;0.67;;;;;13.25;69.16;-19565.31;4767053;29;45695;-94
2022/12/26 15:23:56;;;;;;;;;0.00;0.00;;;;;13.18;67.79;-19563.44;4776170;29;45460;-93